Time;durP1;ratioP1;P1;durP2;ratioP2;P2;SDS_P1;SDS_P2;PMS_P1;PMS_P2;Temp;Humidity;BMP_temperature;BMP_pressure;BME280_temperature;BME280_humidity;BME280_pressure;Samples;Min_cycle;Max_cycle;Signal;HPM_P1;HPM_P2
2022/02/15 00:00:07;;;;;;;8.82;4.40;;;;;;;;;;505124;29;790;-78
2022/02/15 00:00:23;;;;;;;8.52;4.55;;;;;;;;;;505432;29;1370;-78
2022/02/15 00:00:38;;;;;;;8.93;4.85;;;;;;;;;;505829;29;1446;-78
2022/02/15 00:00:54;;;;;;;10.47;5.00;;;;;;;;;;505922;29;873;-78
2022/02/15 00:01:09;;;;;;;10.25;5.10;;;;;;;;;;506298;29;1147;-78
2022/02/15 00:01:24;;;;;;;9.87;5.10;;;;;;;;;;506213;29;936;-78
2022/02/15 00:01:41;;;;;;;9.87;5.03;;;;;;;;;;506072;29;762;-78
2022/02/15 00:01:56;;;;;;;11.25;5.15;;;;;;;;;;506004;29;802;-78
2022/02/15 00:02:11;;;;;;;11.20;5.27;;;;;;;;;;505787;29;1362;-78
2022/02/15 00:02:26;;;;;;;10.80;5.33;;;;;;;;;;506062;29;825;-78
2022/02/15 00:02:42;;;;;;;11.37;5.60;;;;;;;;;;505693;29;1035;-78
2022/02/15 00:02:57;;;;;;;10.97;5.63;;;;;;;;;;505605;29;991;-78
2022/02/15 00:03:12;;;;;;;11.83;5.60;;;;;;;;;;505320;29;1531;-78
2022/02/15 00:03:28;;;;;;;10.98;5.50;;;;;;;;;;503859;29;826;-78
2022/02/15 00:03:43;;;;;;;9.53;5.40;;;;;;;;;;502163;29;1354;-78
2022/02/15 00:03:59;;;;;;;10.07;5.10;;;;;;;;;;504144;29;744;-78
2022/02/15 00:04:15;;;;;;;10.38;5.20;;;;;;;;;;507504;29;791;-78
2022/02/15 00:04:30;;;;;;;9.43;5.22;;;;;;;;;;506058;29;872;-78
2022/02/15 00:04:45;;;;;;;8.73;5.10;;;;;;;;;;503949;29;1155;-78
2022/02/15 00:05:01;;;;;;;10.20;5.38;;;;;;;;;;505161;29;853;-78
2022/02/15 00:05:17;;;;;;;10.87;5.53;;;;;;;;;;506100;29;617;-78
2022/02/15 00:05:32;;;;;;;10.20;5.00;;;;;;;;;;504041;29;968;-78
2022/02/15 00:05:47;;;;;;;10.30;4.90;;;;;;;;;;504789;29;945;-78
2022/02/15 00:06:02;;;;;;;10.30;5.35;;;;;;;;;;506235;29;999;-78
2022/02/15 00:06:18;;;;;;;10.00;5.30;;;;;;;;;;506065;29;1151;-77
2022/02/15 00:06:33;;;;;;;11.10;5.23;;;;;;;;;;506465;29;953;-78
2022/02/15 00:06:49;;;;;;;11.73;5.30;;;;;;;;;;508046;29;949;-78
2022/02/15 00:07:04;;;;;;;12.03;5.40;;;;;;;;;;507833;29;933;-78
2022/02/15 00:07:19;;;;;;;10.98;5.28;;;;;;;;;;508108;29;844;-78
2022/02/15 00:07:35;;;;;;;10.63;5.23;;;;;;;;;;508171;29;1136;-78
2022/02/15 00:07:50;;;;;;;11.20;5.23;;;;;;;;;;508055;29;827;-78
2022/02/15 00:08:05;;;;;;;11.93;5.45;;;;;;;;;;508160;29;1248;-78
2022/02/15 00:08:21;;;;;;;10.83;5.30;;;;;;;;;;506091;29;1389;-78
2022/02/15 00:08:36;;;;;;;9.93;4.70;;;;;;;;;;506255;29;829;-78
2022/02/15 00:08:51;;;;;;;9.63;4.72;;;;;;;;;;506389;29;1195;-78
2022/02/15 00:09:07;;;;;;;9.77;4.97;;;;;;;;;;506963;29;770;-78
2022/02/15 00:09:22;;;;;;;10.00;4.90;;;;;;;;;;505129;29;1324;-78
2022/02/15 00:09:37;;;;;;;7.65;4.45;;;;;;;;;;502281;29;1356;-78
2022/02/15 00:09:52;;;;;;;7.93;4.43;;;;;;;;;;503125;29;778;-78
2022/02/15 00:10:09;;;;;;;8.50;4.30;;;;;;;;;;502540;29;759;-77
2022/02/15 00:10:24;;;;;;;9.02;3.90;;;;;;;;;;501451;29;988;-78
2022/02/15 00:10:39;;;;;;;9.48;4.03;;;;;;;;;;500908;29;1452;-78
2022/02/15 00:10:55;;;;;;;9.80;4.10;;;;;;;;;;504484;29;735;-78
2022/02/15 00:11:10;;;;;;;9.33;4.10;;;;;;;;;;504178;29;980;-78
2022/02/15 00:11:25;;;;;;;7.97;4.00;;;;;;;;;;506179;29;1614;-77
2022/02/15 00:11:41;;;;;;;7.67;3.90;;;;;;;;;;508166;29;830;-78
2022/02/15 00:11:56;;;;;;;8.97;4.30;;;;;;;;;;508305;29;1061;-78
2022/02/15 00:12:11;;;;;;;9.52;4.70;;;;;;;;;;506965;29;1464;-78
2022/02/15 00:12:26;;;;;;;10.03;4.90;;;;;;;;;;505808;29;1245;-78
2022/02/15 00:12:42;;;;;;;10.83;4.87;;;;;;;;;;505009;29;1430;-78
2022/02/15 00:12:57;;;;;;;9.95;4.45;;;;;;;;;;506286;29;1376;-78
2022/02/15 00:13:14;;;;;;;9.13;4.40;;;;;;;;;;506375;29;1428;-78
2022/02/15 00:13:29;;;;;;;8.45;4.28;;;;;;;;;;503975;29;1997;-78
2022/02/15 00:13:45;;;;;;;8.97;4.40;;;;;;;;;;504388;29;905;-77
2022/02/15 00:14:00;;;;;;;8.77;4.40;;;;;;;;;;503051;29;1413;-78
2022/02/15 00:14:17;;;;;;;7.67;4.10;;;;;;;;;;503218;29;1168;-78
2022/02/15 00:14:32;;;;;;;7.57;3.95;;;;;;;;;;503053;29;830;-78
2022/02/15 00:14:48;;;;;;;8.00;4.13;;;;;;;;;;504922;29;791;-78
2022/02/15 00:15:05;;;;;;;8.27;4.47;;;;;;;;;;506494;29;755;-78
2022/02/15 00:15:21;;;;;;;9.38;4.60;;;;;;;;;;505139;29;1935;-78
2022/02/15 00:15:36;;;;;;;10.77;4.60;;;;;;;;;;504893;29;771;-78
2022/02/15 00:15:52;;;;;;;11.37;4.70;;;;;;;;;;506579;29;1180;-78
2022/02/15 00:16:07;;;;;;;10.07;4.53;;;;;;;;;;508408;29;1362;-78
2022/02/15 00:16:22;;;;;;;8.80;4.47;;;;;;;;;;507906;29;1238;-78
2022/02/15 00:16:37;;;;;;;10.00;4.80;;;;;;;;;;508454;29;1158;-78
2022/02/15 00:16:53;;;;;;;9.88;4.93;;;;;;;;;;508344;29;813;-78
2022/02/15 00:17:08;;;;;;;8.47;4.57;;;;;;;;;;506085;29;1255;-78
2022/02/15 00:17:23;;;;;;;8.57;4.23;;;;;;;;;;505467;29;1280;-78
2022/02/15 00:17:41;;;;;;;8.88;4.22;;;;;;;;;;505773;29;999;-78
2022/02/15 00:17:57;;;;;;;8.45;4.25;;;;;;;;;;504086;29;865;-78
2022/02/15 00:18:13;;;;;;;9.05;4.63;;;;;;;;;;504102;29;1472;-77
2022/02/15 00:18:28;;;;;;;9.63;4.80;;;;;;;;;;505309;29;750;-78
2022/02/15 00:18:44;;;;;;;9.68;4.72;;;;;;;;;;504040;29;767;-78
2022/02/15 00:18:59;;;;;;;8.33;4.60;;;;;;;;;;504764;29;1274;-78
2022/02/15 00:19:14;;;;;;;7.00;4.40;;;;;;;;;;506099;29;1160;-77
2022/02/15 00:19:30;;;;;;;8.50;4.72;;;;;;;;;;503652;29;818;-78
2022/02/15 00:19:45;;;;;;;10.50;5.20;;;;;;;;;;505014;29;821;-78
2022/02/15 00:20:01;;;;;;;10.48;5.25;;;;;;;;;;506133;29;766;-78
2022/02/15 00:20:16;;;;;;;10.17;5.10;;;;;;;;;;506288;29;830;-78
2022/02/15 00:20:31;;;;;;;10.75;4.88;;;;;;;;;;504876;29;1269;-79
2022/02/15 00:20:47;;;;;;;9.60;4.60;;;;;;;;;;506322;29;1506;-78
2022/02/15 00:21:02;;;;;;;10.00;4.93;;;;;;;;;;506382;29;1237;-78
2022/02/15 00:21:17;;;;;;;10.65;5.20;;;;;;;;;;505666;29;1599;-78
2022/02/15 00:21:33;;;;;;;10.27;4.97;;;;;;;;;;503445;29;1382;-78
2022/02/15 00:21:48;;;;;;;10.10;4.73;;;;;;;;;;502860;29;787;-78
2022/02/15 00:22:04;;;;;;;9.82;4.60;;;;;;;;;;502640;29;731;-79
2022/02/15 00:22:19;;;;;;;8.55;4.47;;;;;;;;;;502438;29;1099;-78
2022/02/15 00:22:35;;;;;;;9.67;4.40;;;;;;;;;;502694;29;755;-79
2022/02/15 00:22:50;;;;;;;10.50;4.60;;;;;;;;;;503948;29;846;-79
2022/02/15 00:23:05;;;;;;;9.20;4.63;;;;;;;;;;505599;29;742;-79
2022/02/15 00:23:21;;;;;;;9.47;4.53;;;;;;;;;;504336;29;1471;-79
2022/02/15 00:23:36;;;;;;;10.05;4.60;;;;;;;;;;505676;29;1341;-79
2022/02/15 00:23:51;;;;;;;11.10;4.83;;;;;;;;;;506925;29;1215;-79
2022/02/15 00:24:07;;;;;;;10.17;4.73;;;;;;;;;;506049;29;1168;-80
2022/02/15 00:24:22;;;;;;;9.07;4.47;;;;;;;;;;503177;29;826;-79
2022/02/15 00:24:37;;;;;;;9.73;4.63;;;;;;;;;;502666;29;846;-79
2022/02/15 00:24:53;;;;;;;9.27;4.60;;;;;;;;;;506082;29;1472;-80
2022/02/15 00:25:09;;;;;;;8.95;4.47;;;;;;;;;;505666;29;1357;-79
2022/02/15 00:25:25;;;;;;;8.77;4.60;;;;;;;;;;502404;29;822;-79
2022/02/15 00:25:40;;;;;;;8.25;4.68;;;;;;;;;;503604;29;1430;-79
2022/02/15 00:25:55;;;;;;;8.83;4.50;;;;;;;;;;504257;29;933;-79
2022/02/15 00:26:11;;;;;;;8.98;4.55;;;;;;;;;;505905;29;1202;-79
2022/02/15 00:26:27;;;;;;;8.57;4.50;;;;;;;;;;505648;29;1287;-79
2022/02/15 00:26:42;;;;;;;9.05;4.38;;;;;;;;;;503802;29;1121;-79
2022/02/15 00:26:57;;;;;;;10.20;4.70;;;;;;;;;;504149;29;889;-79
2022/02/15 00:27:13;;;;;;;10.35;4.88;;;;;;;;;;502706;29;1330;-79
2022/02/15 00:27:28;;;;;;;9.10;4.60;;;;;;;;;;502458;29;1354;-79
2022/02/15 00:27:43;;;;;;;8.40;4.50;;;;;;;;;;503845;29;1365;-79
2022/02/15 00:27:59;;;;;;;8.00;4.55;;;;;;;;;;503691;29;1210;-79
2022/02/15 00:28:14;;;;;;;7.80;4.40;;;;;;;;;;503461;29;1535;-79
2022/02/15 00:28:29;;;;;;;7.80;4.27;;;;;;;;;;501772;29;930;-79
2022/02/15 00:28:45;;;;;;;7.32;4.30;;;;;;;;;;503378;29;1301;-79
2022/02/15 00:29:01;;;;;;;9.00;4.60;;;;;;;;;;503788;29;1218;-79
2022/02/15 00:29:16;;;;;;;9.85;4.55;;;;;;;;;;504236;29;809;-79
2022/02/15 00:29:32;;;;;;;9.40;4.30;;;;;;;;;;505774;29;806;-79
2022/02/15 00:29:47;;;;;;;8.53;4.13;;;;;;;;;;505881;29;909;-80
2022/02/15 00:30:03;;;;;;;7.77;4.20;;;;;;;;;;505894;29;921;-79
2022/02/15 00:30:18;;;;;;;8.70;4.40;;;;;;;;;;505745;29;1114;-79
2022/02/15 00:30:33;;;;;;;9.17;4.50;;;;;;;;;;504034;29;790;-79
2022/02/15 00:30:48;;;;;;;8.55;4.60;;;;;;;;;;506216;29;854;-79
2022/02/15 00:31:04;;;;;;;8.70;4.40;;;;;;;;;;506290;29;830;-80
2022/02/15 00:31:19;;;;;;;8.50;4.30;;;;;;;;;;505966;29;1187;-79
2022/02/15 00:31:35;;;;;;;8.90;4.50;;;;;;;;;;506067;29;1290;-79
2022/02/15 00:31:50;;;;;;;10.43;4.60;;;;;;;;;;506175;29;1706;-79
2022/02/15 00:32:06;;;;;;;9.90;4.50;;;;;;;;;;504594;29;798;-79
2022/02/15 00:32:21;;;;;;;9.50;4.30;;;;;;;;;;504133;29;921;-79
2022/02/15 00:32:36;;;;;;;9.05;4.40;;;;;;;;;;504311;29;1015;-79
2022/02/15 00:32:52;;;;;;;8.20;4.60;;;;;;;;;;504473;29;1517;-79
2022/02/15 00:33:07;;;;;;;8.60;4.70;;;;;;;;;;506044;29;1124;-79
2022/02/15 00:33:22;;;;;;;8.93;4.50;;;;;;;;;;502435;29;1535;-79
2022/02/15 00:33:38;;;;;;;8.37;4.60;;;;;;;;;;503543;29;1182;-80
2022/02/15 00:33:53;;;;;;;9.10;4.57;;;;;;;;;;504198;29;944;-79
2022/02/15 00:34:08;;;;;;;9.15;4.53;;;;;;;;;;503976;29;1011;-79
2022/02/15 00:34:23;;;;;;;9.30;4.80;;;;;;;;;;503939;29;1152;-79
2022/02/15 00:34:39;;;;;;;10.03;4.50;;;;;;;;;;504288;29;1006;-79
2022/02/15 00:34:54;;;;;;;9.57;4.40;;;;;;;;;;504155;29;1167;-79
2022/02/15 00:35:10;;;;;;;9.83;4.77;;;;;;;;;;504403;29;961;-79
2022/02/15 00:35:25;;;;;;;9.90;4.70;;;;;;;;;;504599;29;1961;-79
2022/02/15 00:35:41;;;;;;;9.35;4.50;;;;;;;;;;503511;29;789;-79
2022/02/15 00:35:57;;;;;;;8.83;4.47;;;;;;;;;;504110;29;834;-79
2022/02/15 00:36:12;;;;;;;9.63;4.50;;;;;;;;;;503123;29;1208;-79
2022/02/15 00:36:29;;;;;;;9.63;4.60;;;;;;;;;;504182;29;980;-79
2022/02/15 00:36:44;;;;;;;9.07;4.70;;;;;;;;;;504588;29;830;-79
2022/02/15 00:37:01;;;;;;;9.47;4.70;;;;;;;;;;505989;29;751;-78
2022/02/15 00:37:16;;;;;;;8.98;4.32;;;;;;;;;;505984;29;1199;-79
2022/02/15 00:37:32;;;;;;;8.43;4.20;;;;;;;;;;506230;29;746;-79
2022/02/15 00:37:47;;;;;;;8.43;4.35;;;;;;;;;;505528;29;774;-79
2022/02/15 00:38:02;;;;;;;8.47;4.00;;;;;;;;;;506448;29;1093;-79
2022/02/15 00:38:17;;;;;;;8.70;3.90;;;;;;;;;;506388;29;1552;-79
2022/02/15 00:38:33;;;;;;;9.73;4.00;;;;;;;;;;505916;29;1263;-79
2022/02/15 00:38:48;;;;;;;8.95;4.03;;;;;;;;;;507339;29;1428;-79
2022/02/15 00:39:03;;;;;;;7.87;4.30;;;;;;;;;;506110;29;921;-79
2022/02/15 00:39:18;;;;;;;8.73;4.33;;;;;;;;;;504713;29;770;-79
2022/02/15 00:39:35;;;;;;;8.20;4.05;;;;;;;;;;507449;29;855;-79
2022/02/15 00:39:50;;;;;;;8.52;4.20;;;;;;;;;;508212;29;946;-79
2022/02/15 00:40:07;;;;;;;9.10;4.37;;;;;;;;;;508580;29;865;-79
2022/02/15 00:40:22;;;;;;;8.73;4.30;;;;;;;;;;506694;29;1213;-79
2022/02/15 00:40:38;;;;;;;7.60;4.07;;;;;;;;;;506153;29;1159;-79
2022/02/15 00:40:53;;;;;;;7.18;4.05;;;;;;;;;;506006;29;878;-80
2022/02/15 00:41:08;;;;;;;8.07;4.10;;;;;;;;;;505928;29;1246;-79
2022/02/15 00:41:24;;;;;;;8.10;4.10;;;;;;;;;;506246;29;917;-79
2022/02/15 00:41:39;;;;;;;7.17;4.13;;;;;;;;;;506333;29;719;-80
2022/02/15 00:41:54;;;;;;;8.40;4.33;;;;;;;;;;507627;29;1261;-80
2022/02/15 00:42:10;;;;;;;9.27;4.38;;;;;;;;;;508165;29;1150;-79
2022/02/15 00:42:25;;;;;;;8.50;4.20;;;;;;;;;;509608;29;616;-79
2022/02/15 00:42:41;;;;;;;9.27;4.20;;;;;;;;;;505000;29;1188;-79
2022/02/15 00:42:57;;;;;;;8.80;4.03;;;;;;;;;;507806;29;767;-79
2022/02/15 00:43:12;;;;;;;7.20;4.03;;;;;;;;;;505911;29;1570;-79
2022/02/15 00:43:27;;;;;;;8.83;4.50;;;;;;;;;;503554;29;1668;-79
2022/02/15 00:43:42;;;;;;;12.15;4.72;;;;;;;;;;503939;29;1166;-79
2022/02/15 00:43:58;;;;;;;11.90;4.60;;;;;;;;;;502476;29;1355;-79
2022/02/15 00:44:14;;;;;;;9.20;4.53;;;;;;;;;;501348;29;1190;-79
2022/02/15 00:44:31;;;;;;;8.48;4.50;;;;;;;;;;501792;29;881;-79
2022/02/15 00:44:46;;;;;;;8.40;4.63;;;;;;;;;;503873;29;838;-79
2022/02/15 00:45:04;;;;;;;8.32;4.45;;;;;;;;;;504090;29;870;-79
2022/02/15 00:45:19;;;;;;;9.02;4.50;;;;;;;;;;503124;29;980;-79
2022/02/15 00:45:35;;;;;;;8.43;4.60;;;;;;;;;;505024;29;846;-80
2022/02/15 00:45:50;;;;;;;9.00;4.50;;;;;;;;;;505861;29;849;-79
2022/02/15 00:46:06;;;;;;;8.53;4.40;;;;;;;;;;507599;29;829;-80
2022/02/15 00:46:21;;;;;;;7.57;4.30;;;;;;;;;;508160;29;755;-79
2022/02/15 00:46:36;;;;;;;8.20;4.32;;;;;;;;;;505523;29;1189;-79
2022/02/15 00:46:53;;;;;;;8.37;4.50;;;;;;;;;;505893;29;801;-79
2022/02/15 00:47:08;;;;;;;8.73;4.78;;;;;;;;;;505967;29;853;-79
2022/02/15 00:47:23;;;;;;;9.30;4.77;;;;;;;;;;505854;29;1655;-79
2022/02/15 00:47:39;;;;;;;9.77;4.70;;;;;;;;;;505817;29;1523;-79
2022/02/15 00:47:54;;;;;;;10.00;4.72;;;;;;;;;;505567;29;985;-79
2022/02/15 00:48:09;;;;;;;9.50;4.70;;;;;;;;;;506256;29;952;-79
2022/02/15 00:48:25;;;;;;;8.93;4.60;;;;;;;;;;505423;29;1575;-79
2022/02/15 00:48:40;;;;;;;8.45;4.72;;;;;;;;;;506097;29;934;-79
2022/02/15 00:48:56;;;;;;;9.50;5.03;;;;;;;;;;507966;29;861;-79
2022/02/15 00:49:11;;;;;;;9.93;5.13;;;;;;;;;;508036;29;865;-79
2022/02/15 00:49:27;;;;;;;9.67;5.23;;;;;;;;;;507807;29;1038;-79
2022/02/15 00:49:42;;;;;;;8.85;5.20;;;;;;;;;;509563;29;854;-79
2022/02/15 00:49:59;;;;;;;8.40;5.20;;;;;;;;;;508338;29;787;-79
2022/02/15 00:50:14;;;;;;;10.00;5.30;;;;;;;;;;505915;29;1485;-79
2022/02/15 00:50:29;;;;;;;10.63;5.20;;;;;;;;;;505659;29;881;-79
2022/02/15 00:50:44;;;;;;;10.03;5.20;;;;;;;;;;505465;29;980;-79
2022/02/15 00:51:00;;;;;;;9.43;5.22;;;;;;;;;;505984;29;945;-79
2022/02/15 00:51:15;;;;;;;9.53;5.33;;;;;;;;;;505972;29;793;-79
2022/02/15 00:51:30;;;;;;;9.03;5.67;;;;;;;;;;505890;29;746;-79
2022/02/15 00:51:46;;;;;;;9.23;5.50;;;;;;;;;;505631;29;896;-79
2022/02/15 00:52:01;;;;;;;9.27;5.30;;;;;;;;;;505854;29;941;-79
2022/02/15 00:52:16;;;;;;;8.77;5.43;;;;;;;;;;506100;29;781;-80
2022/02/15 00:52:32;;;;;;;8.73;5.30;;;;;;;;;;506081;29;988;-79
2022/02/15 00:52:48;;;;;;;8.80;5.20;;;;;;;;;;506907;29;743;-79
2022/02/15 00:53:03;;;;;;;10.10;5.40;;;;;;;;;;508086;29;1035;-79
2022/02/15 00:53:18;;;;;;;10.60;5.37;;;;;;;;;;505721;29;1511;-79
2022/02/15 00:53:34;;;;;;;9.13;5.10;;;;;;;;;;506090;29;968;-79
2022/02/15 00:53:49;;;;;;;9.38;5.00;;;;;;;;;;504097;29;845;-79
2022/02/15 00:54:04;;;;;;;9.87;5.30;;;;;;;;;;504322;29;972;-79
2022/02/15 00:54:20;;;;;;;9.32;5.30;;;;;;;;;;504208;29;1161;-79
2022/02/15 00:54:35;;;;;;;9.43;5.20;;;;;;;;;;503932;29;1129;-79
2022/02/15 00:54:50;;;;;;;9.88;4.97;;;;;;;;;;503871;29;822;-80
2022/02/15 00:55:08;;;;;;;9.83;4.70;;;;;;;;;;502539;29;1144;-79
2022/02/15 00:55:24;;;;;;;9.88;4.68;;;;;;;;;;501758;29;1998;-79
2022/02/15 00:55:39;;;;;;;9.73;4.73;;;;;;;;;;502574;29;1408;-79
2022/02/15 00:55:54;;;;;;;8.87;4.60;;;;;;;;;;504223;29;1316;-79
2022/02/15 00:56:10;;;;;;;9.90;4.65;;;;;;;;;;502338;29;1282;-79
2022/02/15 00:56:25;;;;;;;10.70;4.83;;;;;;;;;;502204;29;1356;-79
2022/02/15 00:56:40;;;;;;;8.97;4.63;;;;;;;;;;502481;29;755;-79
2022/02/15 00:56:56;;;;;;;9.02;4.70;;;;;;;;;;502484;29;846;-79
2022/02/15 00:57:11;;;;;;;9.40;4.97;;;;;;;;;;504251;29;766;-79
2022/02/15 00:57:26;;;;;;;8.45;4.88;;;;;;;;;;506206;29;817;-79
2022/02/15 00:57:42;;;;;;;9.67;4.80;;;;;;;;;;506213;29;941;-79
2022/02/15 00:57:57;;;;;;;9.80;4.90;;;;;;;;;;506332;29;916;-79
2022/02/15 00:58:13;;;;;;;10.40;4.90;;;;;;;;;;507417;29;1574;-79
2022/02/15 00:58:28;;;;;;;11.03;4.50;;;;;;;;;;507976;29;830;-79
2022/02/15 00:58:43;;;;;;;10.25;4.50;;;;;;;;;;508026;29;778;-78
2022/02/15 00:58:59;;;;;;;9.60;4.77;;;;;;;;;;507694;29;908;-79
2022/02/15 00:59:14;;;;;;;9.77;5.00;;;;;;;;;;507858;29;944;-79
2022/02/15 00:59:29;;;;;;;9.87;4.90;;;;;;;;;;507861;29;936;-78
2022/02/15 00:59:44;;;;;;;10.00;4.78;;;;;;;;;;507819;29;921;-79
2022/02/15 01:00:00;;;;;;;9.20;4.73;;;;;;;;;;507984;29;758;-79
2022/02/15 01:00:16;;;;;;;7.90;4.57;;;;;;;;;;508146;29;817;-79
2022/02/15 01:00:31;;;;;;;8.80;4.60;;;;;;;;;;507588;29;862;-79
2022/02/15 01:00:46;;;;;;;9.23;4.60;;;;;;;;;;506063;29;929;-79
2022/02/15 01:01:02;;;;;;;9.17;4.63;;;;;;;;;;505933;29;1224;-79
2022/02/15 01:01:17;;;;;;;8.77;4.60;;;;;;;;;;505986;29;802;-79
2022/02/15 01:01:32;;;;;;;10.30;4.53;;;;;;;;;;506065;29;822;-79
2022/02/15 01:01:48;;;;;;;9.80;4.50;;;;;;;;;;507959;29;1230;-79
2022/02/15 01:02:04;;;;;;;7.25;4.40;;;;;;;;;;507938;29;1346;-79
2022/02/15 01:02:19;;;;;;;7.97;4.50;;;;;;;;;;508141;29;1209;-78
2022/02/15 01:02:34;;;;;;;8.60;4.40;;;;;;;;;;507204;29;1318;-79
2022/02/15 01:02:50;;;;;;;8.40;4.40;;;;;;;;;;506927;29;1437;-78
2022/02/15 01:03:05;;;;;;;9.05;4.63;;;;;;;;;;505401;29;1417;-79
2022/02/15 01:03:20;;;;;;;9.10;4.77;;;;;;;;;;503985;29;1491;-79
2022/02/15 01:03:36;;;;;;;8.73;4.63;;;;;;;;;;503970;29;1188;-80
2022/02/15 01:03:51;;;;;;;8.50;4.60;;;;;;;;;;504327;29;1294;-79
2022/02/15 01:04:06;;;;;;;7.77;4.40;;;;;;;;;;506019;29;723;-79
2022/02/15 01:04:22;;;;;;;8.30;4.27;;;;;;;;;;505687;29;1233;-79
2022/02/15 01:04:37;;;;;;;8.03;4.33;;;;;;;;;;503889;29;1182;-79
2022/02/15 01:04:53;;;;;;;6.90;4.40;;;;;;;;;;503936;29;918;-79
2022/02/15 01:05:08;;;;;;;7.80;4.45;;;;;;;;;;503791;29;1159;-78
2022/02/15 01:05:24;;;;;;;8.60;4.60;;;;;;;;;;503238;29;715;-78
2022/02/15 01:05:39;;;;;;;7.70;4.45;;;;;;;;;;503995;29;818;-79
2022/02/15 01:05:57;;;;;;;7.35;4.28;;;;;;;;;;505816;29;949;-79
2022/02/15 01:06:12;;;;;;;8.02;4.25;;;;;;;;;;505849;29;1275;-78
2022/02/15 01:06:27;;;;;;;8.00;4.17;;;;;;;;;;505938;29;1170;-79
2022/02/15 01:06:43;;;;;;;7.07;4.10;;;;;;;;;;507760;29;1286;-79
2022/02/15 01:06:58;;;;;;;8.07;4.20;;;;;;;;;;507871;29;970;-79
2022/02/15 01:07:13;;;;;;;9.30;4.30;;;;;;;;;;505819;29;1183;-78
2022/02/15 01:07:29;;;;;;;8.50;4.10;;;;;;;;;;505741;29;773;-79
2022/02/15 01:07:44;;;;;;;8.70;4.30;;;;;;;;;;505876;29;845;-79
2022/02/15 01:07:59;;;;;;;9.03;4.60;;;;;;;;;;505697;29;1162;-79
2022/02/15 01:08:15;;;;;;;9.10;4.45;;;;;;;;;;505485;29;1548;-79
2022/02/15 01:08:30;;;;;;;8.30;4.30;;;;;;;;;;506771;29;1168;-79
2022/02/15 01:08:46;;;;;;;7.57;4.17;;;;;;;;;;504258;29;857;-79
2022/02/15 01:09:03;;;;;;;7.47;4.20;;;;;;;;;;506164;29;934;-79
2022/02/15 01:09:18;;;;;;;7.90;4.30;;;;;;;;;;505906;29;873;-79
2022/02/15 01:09:33;;;;;;;8.20;4.10;;;;;;;;;;505460;29;833;-78
2022/02/15 01:09:48;;;;;;;7.85;3.85;;;;;;;;;;505909;29;940;-79
2022/02/15 01:10:05;;;;;;;7.83;4.10;;;;;;;;;;503843;29;1210;-79
2022/02/15 01:10:21;;;;;;;7.43;4.07;;;;;;;;;;503776;29;1054;-79
2022/02/15 01:10:36;;;;;;;8.43;4.00;;;;;;;;;;504569;29;750;-79
2022/02/15 01:10:51;;;;;;;8.53;3.83;;;;;;;;;;506109;29;829;-80
2022/02/15 01:11:06;;;;;;;7.10;3.88;;;;;;;;;;504136;29;1206;-79
2022/02/15 01:11:22;;;;;;;7.00;3.93;;;;;;;;;;504132;29;1282;-79
2022/02/15 01:11:38;;;;;;;7.90;3.87;;;;;;;;;;503603;29;731;-79
2022/02/15 01:11:53;;;;;;;7.55;3.75;;;;;;;;;;504686;29;857;-79
2022/02/15 01:12:09;;;;;;;7.77;3.80;;;;;;;;;;506131;29;865;-79
2022/02/15 01:12:25;;;;;;;8.02;3.70;;;;;;;;;;504071;29;1192;-79
2022/02/15 01:12:40;;;;;;;8.43;3.90;;;;;;;;;;504267;29;797;-79
2022/02/15 01:12:55;;;;;;;8.82;4.00;;;;;;;;;;504624;29;770;-79
2022/02/15 01:13:10;;;;;;;8.07;3.80;;;;;;;;;;505641;29;1411;-79
2022/02/15 01:13:26;;;;;;;6.77;3.67;;;;;;;;;;505018;29;1607;-79
2022/02/15 01:13:42;;;;;;;6.72;3.60;;;;;;;;;;505666;29;1271;-79
2022/02/15 01:13:57;;;;;;;7.50;3.50;;;;;;;;;;504662;29;1314;-79
2022/02/15 01:14:12;;;;;;;6.93;3.50;;;;;;;;;;505072;29;1317;-79
2022/02/15 01:14:27;;;;;;;6.97;3.50;;;;;;;;;;507961;29;829;-79
2022/02/15 01:14:43;;;;;;;7.63;3.53;;;;;;;;;;508055;29;1372;-79
2022/02/15 01:14:58;;;;;;;7.25;3.50;;;;;;;;;;507648;29;987;-79
2022/02/15 01:15:17;;;;;;;6.63;3.53;;;;;;;;;;506051;29;746;-79
2022/02/15 01:15:33;;;;;;;7.57;3.85;;;;;;;;;;505408;29;1966;-79
2022/02/15 01:15:49;;;;;;;7.60;3.80;;;;;;;;;;502716;29;1250;-79
2022/02/15 01:16:06;;;;;;;7.93;3.78;;;;;;;;;;502750;29;1367;-79
2022/02/15 01:16:21;;;;;;;8.00;3.72;;;;;;;;;;504064;29;1329;-80
2022/02/15 01:16:36;;;;;;;7.33;3.40;;;;;;;;;;505249;29;900;-79
2022/02/15 01:16:51;;;;;;;6.67;3.40;;;;;;;;;;506184;29;900;-80
2022/02/15 01:17:07;;;;;;;7.75;3.85;;;;;;;;;;506211;29;924;-79
2022/02/15 01:17:22;;;;;;;9.37;4.23;;;;;;;;;;504174;29;1245;-79
2022/02/15 01:17:37;;;;;;;8.20;4.00;;;;;;;;;;504497;29;774;-80
2022/02/15 01:17:53;;;;;;;6.80;3.85;;;;;;;;;;505539;29;777;-79
2022/02/15 01:18:08;;;;;;;7.53;3.67;;;;;;;;;;504021;29;1402;-80
2022/02/15 01:18:26;;;;;;;9.23;3.60;;;;;;;;;;505090;29;1503;-80
2022/02/15 01:18:41;;;;;;;9.32;4.00;;;;;;;;;;505624;29;1264;-80
2022/02/15 01:18:56;;;;;;;8.37;4.30;;;;;;;;;;505986;29;883;-78
2022/02/15 01:19:12;;;;;;;9.00;4.45;;;;;;;;;;503447;29;2415;-79
2022/02/15 01:19:29;;;;;;;9.53;4.40;;;;;;;;;;506051;29;2194;-79
2022/02/15 01:19:44;;;;;;;8.30;4.07;;;;;;;;;;505725;29;790;-79
2022/02/15 01:20:00;;;;;;;8.23;4.20;;;;;;;;;;506328;29;1267;-79
2022/02/15 01:20:15;;;;;;;8.50;4.13;;;;;;;;;;507337;29;808;-79
2022/02/15 01:20:31;;;;;;;8.43;3.90;;;;;;;;;;506620;29;817;-79
2022/02/15 01:20:46;;;;;;;7.33;3.93;;;;;;;;;;503814;29;1266;-79
2022/02/15 01:21:02;;;;;;;7.32;3.97;;;;;;;;;;504052;29;771;-79
2022/02/15 01:21:17;;;;;;;8.47;4.03;;;;;;;;;;503973;29;861;-79
2022/02/15 01:21:32;;;;;;;9.10;4.20;;;;;;;;;;503971;29;770;-79
2022/02/15 01:21:48;;;;;;;9.23;4.10;;;;;;;;;;503927;29;739;-79
2022/02/15 01:22:04;;;;;;;8.77;4.00;;;;;;;;;;505525;29;762;-79
2022/02/15 01:22:19;;;;;;;7.95;3.80;;;;;;;;;;505904;29;848;-79
2022/02/15 01:22:35;;;;;;;7.95;3.83;;;;;;;;;;506154;29;770;-78
2022/02/15 01:22:50;;;;;;;8.03;4.00;;;;;;;;;;507709;29;1281;-79
2022/02/15 01:23:05;;;;;;;9.33;4.17;;;;;;;;;;507608;29;739;-78
2022/02/15 01:23:21;;;;;;;9.60;4.10;;;;;;;;;;506801;29;1670;-79
2022/02/15 01:23:36;;;;;;;7.53;3.85;;;;;;;;;;507034;29;821;-79
2022/02/15 01:23:52;;;;;;;8.27;3.90;;;;;;;;;;506669;29;778;-78
2022/02/15 01:24:07;;;;;;;9.03;4.00;;;;;;;;;;505653;29;798;-79
2022/02/15 01:24:23;;;;;;;9.05;4.07;;;;;;;;;;506852;29;861;-77
2022/02/15 01:24:38;;;;;;;8.60;4.10;;;;;;;;;;507366;29;1478;-79
2022/02/15 01:24:54;;;;;;;8.23;4.30;;;;;;;;;;505995;29;916;-78
2022/02/15 01:25:09;;;;;;;9.47;4.17;;;;;;;;;;506056;29;1150;-78
2022/02/15 01:25:26;;;;;;;9.35;4.00;;;;;;;;;;505676;29;976;-78
2022/02/15 01:25:42;;;;;;;8.52;4.32;;;;;;;;;;503727;29;845;-78
2022/02/15 01:25:57;;;;;;;8.93;4.37;;;;;;;;;;504187;29;964;-78
2022/02/15 01:26:12;;;;;;;8.50;4.20;;;;;;;;;;503825;29;829;-78
2022/02/15 01:26:28;;;;;;;8.43;4.40;;;;;;;;;;504658;29;1302;-79
2022/02/15 01:26:43;;;;;;;8.50;4.27;;;;;;;;;;506179;29;822;-78
2022/02/15 01:26:58;;;;;;;8.55;4.00;;;;;;;;;;506166;29;980;-78
2022/02/15 01:27:14;;;;;;;8.20;4.00;;;;;;;;;;506115;29;881;-78
2022/02/15 01:27:29;;;;;;;7.30;4.07;;;;;;;;;;506023;29;1223;-78
2022/02/15 01:27:44;;;;;;;8.15;4.20;;;;;;;;;;507922;29;774;-78
2022/02/15 01:27:59;;;;;;;8.40;4.03;;;;;;;;;;507975;29;801;-78
2022/02/15 01:28:15;;;;;;;7.43;3.87;;;;;;;;;;506787;29;1508;-79
2022/02/15 01:28:34;;;;;;;7.90;4.00;;;;;;;;;;507709;29;1262;-79
2022/02/15 01:28:49;;;;;;;9.00;3.97;;;;;;;;;;507807;29;797;-79
2022/02/15 01:29:05;;;;;;;8.55;3.78;;;;;;;;;;507771;29;1286;-79
2022/02/15 01:29:20;;;;;;;7.27;3.80;;;;;;;;;;507966;29;756;-79
2022/02/15 01:29:35;;;;;;;7.20;3.80;;;;;;;;;;507821;29;1072;-79
2022/02/15 01:29:51;;;;;;;8.23;3.70;;;;;;;;;;507849;29;853;-79
2022/02/15 01:30:07;;;;;;;8.82;3.80;;;;;;;;;;508045;29;929;-79
2022/02/15 01:30:22;;;;;;;8.55;3.83;;;;;;;;;;507301;29;789;-79
2022/02/15 01:30:37;;;;;;;7.83;3.80;;;;;;;;;;506151;29;1037;-79
2022/02/15 01:30:53;;;;;;;8.90;3.83;;;;;;;;;;505979;29;1243;-79
2022/02/15 01:31:09;;;;;;;7.93;4.00;;;;;;;;;;506150;29;742;-79
2022/02/15 01:31:24;;;;;;;6.03;3.80;;;;;;;;;;505753;29;1159;-78
2022/02/15 01:31:39;;;;;;;7.13;3.70;;;;;;;;;;504209;29;865;-79
2022/02/15 01:31:54;;;;;;;7.07;3.73;;;;;;;;;;503849;29;1112;-78
2022/02/15 01:32:10;;;;;;;7.22;3.80;;;;;;;;;;504240;29;778;-79
2022/02/15 01:32:25;;;;;;;8.00;3.70;;;;;;;;;;504064;29;889;-79
2022/02/15 01:32:40;;;;;;;8.07;3.73;;;;;;;;;;506074;29;876;-79
2022/02/15 01:32:56;;;;;;;7.82;3.78;;;;;;;;;;505920;29;850;-79
2022/02/15 01:33:11;;;;;;;6.83;3.60;;;;;;;;;;506196;29;735;-79
2022/02/15 01:33:26;;;;;;;6.65;3.70;;;;;;;;;;506694;29;1499;-79
2022/02/15 01:33:42;;;;;;;6.63;3.60;;;;;;;;;;505833;29;841;-79
2022/02/15 01:33:57;;;;;;;7.80;3.63;;;;;;;;;;507826;29;786;-79
2022/02/15 01:34:12;;;;;;;8.47;3.90;;;;;;;;;;507956;29;822;-79
2022/02/15 01:34:27;;;;;;;7.57;4.03;;;;;;;;;;507364;29;750;-79
2022/02/15 01:34:43;;;;;;;6.63;3.87;;;;;;;;;;506023;29;1160;-79
2022/02/15 01:34:58;;;;;;;7.63;3.80;;;;;;;;;;506049;29;813;-79
2022/02/15 01:35:15;;;;;;;8.32;3.83;;;;;;;;;;506010;29;995;-79
2022/02/15 01:35:31;;;;;;;8.35;3.72;;;;;;;;;;504012;29;1947;-79
2022/02/15 01:35:46;;;;;;;8.03;3.70;;;;;;;;;;503596;29;1089;-79
2022/02/15 01:36:01;;;;;;;7.80;3.80;;;;;;;;;;504295;29;850;-79
2022/02/15 01:36:17;;;;;;;10.13;4.40;;;;;;;;;;503993;29;1262;-78